sensor_id;sensor_type;location;lat;lon;timestamp;P1;durP1;ratioP1;P2;durP2;ratioP2
65924;SDS011;66010;52.084;5.412;2023-04-07T00:02:14;9.40;;;2.20;;
65924;SDS011;66010;52.084;5.412;2023-04-07T00:04:40;6.72;;;2.10;;
65924;SDS011;66010;52.084;5.412;2023-04-07T00:07:07;7.80;;;2.30;;
65924;SDS011;66010;52.084;5.412;2023-04-07T00:09:34;6.78;;;1.98;;
65924;SDS011;66010;52.084;5.412;2023-04-07T00:12:00;6.45;;;2.30;;
65924;SDS011;66010;52.084;5.412;2023-04-07T00:16:54;6.70;;;2.00;;
65924;SDS011;66010;52.084;5.412;2023-04-07T00:19:20;6.90;;;1.90;;
65924;SDS011;66010;52.084;5.412;2023-04-07T00:21:47;5.18;;;1.85;;
65924;SDS011;66010;52.084;5.412;2023-04-07T00:24:13;6.28;;;1.73;;
65924;SDS011;66010;52.084;5.412;2023-04-07T00:26:52;8.23;;;2.05;;
65924;SDS011;66010;52.084;5.412;2023-04-07T00:29:19;6.97;;;1.73;;
65924;SDS011;66010;52.084;5.412;2023-04-07T00:31:45;7.38;;;1.77;;
65924;SDS011;66010;52.084;5.412;2023-04-07T00:34:12;6.00;;;1.80;;
65924;SDS011;66010;52.084;5.412;2023-04-07T00:36:40;5.78;;;1.95;;
65924;SDS011;66010;52.084;5.412;2023-04-07T00:39:06;6.63;;;2.13;;
65924;SDS011;66010;52.084;5.412;2023-04-07T00:44:01;8.65;;;2.20;;
65924;SDS011;66010;52.084;5.412;2023-04-07T00:46:27;9.05;;;2.10;;
65924;SDS011;66010;52.084;5.412;2023-04-07T00:48:54;10.45;;;1.83;;
65924;SDS011;66010;52.084;5.412;2023-04-07T00:51:20;9.02;;;1.90;;
65924;SDS011;66010;52.084;5.412;2023-04-07T00:53:48;8.50;;;2.40;;
65924;SDS011;66010;52.084;5.412;2023-04-07T00:56:15;6.75;;;2.10;;
65924;SDS011;66010;52.084;5.412;2023-04-07T00:58:41;8.13;;;2.17;;
65924;SDS011;66010;52.084;5.412;2023-04-07T01:01:08;8.23;;;2.35;;
65924;SDS011;66010;52.084;5.412;2023-04-07T01:03:43;8.15;;;2.35;;
65924;SDS011;66010;52.084;5.412;2023-04-07T01:06:11;7.55;;;2.28;;
65924;SDS011;66010;52.084;5.412;2023-04-07T01:08:48;7.00;;;2.30;;
65924;SDS011;66010;52.084;5.412;2023-04-07T01:11:24;8.88;;;2.65;;
65924;SDS011;66010;52.084;5.412;2023-04-07T01:13:53;8.85;;;2.45;;
65924;SDS011;66010;52.084;5.412;2023-04-07T01:16:44;6.68;;;2.33;;
65924;SDS011;66010;52.084;5.412;2023-04-07T01:19:15;7.15;;;2.63;;
65924;SDS011;66010;52.084;5.412;2023-04-07T01:21:54;6.88;;;2.58;;
65924;SDS011;66010;52.084;5.412;2023-04-07T01:26:47;7.18;;;2.60;;
65924;SDS011;66010;52.084;5.412;2023-04-07T01:31:44;7.50;;;2.75;;
65924;SDS011;66010;52.084;5.412;2023-04-07T01:34:12;7.00;;;2.55;;
65924;SDS011;66010;52.084;5.412;2023-04-07T01:36:39;8.45;;;2.50;;
65924;SDS011;66010;52.084;5.412;2023-04-07T01:39:06;7.13;;;2.80;;
65924;SDS011;66010;52.084;5.412;2023-04-07T01:41:34;6.82;;;2.60;;
65924;SDS011;66010;52.084;5.412;2023-04-07T01:44:01;8.00;;;2.60;;
65924;SDS011;66010;52.084;5.412;2023-04-07T01:46:28;7.65;;;2.53;;
65924;SDS011;66010;52.084;5.412;2023-04-07T01:48:55;7.85;;;2.92;;
65924;SDS011;66010;52.084;5.412;2023-04-07T01:51:22;7.57;;;2.58;;
65924;SDS011;66010;52.084;5.412;2023-04-07T01:53:49;7.80;;;3.00;;
65924;SDS011;66010;52.084;5.412;2023-04-07T01:56:16;8.40;;;2.60;;
65924;SDS011;66010;52.084;5.412;2023-04-07T01:58:46;7.85;;;2.50;;
65924;SDS011;66010;52.084;5.412;2023-04-07T02:01:16;8.82;;;3.05;;
65924;SDS011;66010;52.084;5.412;2023-04-07T02:03:45;8.85;;;3.13;;
65924;SDS011;66010;52.084;5.412;2023-04-07T02:06:16;7.63;;;3.10;;
65924;SDS011;66010;52.084;5.412;2023-04-07T02:08:45;11.32;;;3.50;;
65924;SDS011;66010;52.084;5.412;2023-04-07T02:11:13;10.20;;;3.50;;
65924;SDS011;66010;52.084;5.412;2023-04-07T02:13:41;7.78;;;3.13;;
65924;SDS011;66010;52.084;5.412;2023-04-07T02:16:10;9.35;;;3.20;;
65924;SDS011;66010;52.084;5.412;2023-04-07T02:18:37;8.20;;;3.40;;
65924;SDS011;66010;52.084;5.412;2023-04-07T02:21:04;8.73;;;3.63;;
65924;SDS011;66010;52.084;5.412;2023-04-07T02:23:33;7.95;;;3.20;;
65924;SDS011;66010;52.084;5.412;2023-04-07T02:26:00;9.82;;;3.63;;
65924;SDS011;66010;52.084;5.412;2023-04-07T02:28:26;10.65;;;3.92;;
65924;SDS011;66010;52.084;5.412;2023-04-07T02:30:53;13.77;;;3.67;;
65924;SDS011;66010;52.084;5.412;2023-04-07T02:33:19;9.05;;;3.03;;
65924;SDS011;66010;52.084;5.412;2023-04-07T02:35:45;10.63;;;3.80;;
65924;SDS011;66010;52.084;5.412;2023-04-07T02:38:12;9.27;;;3.63;;
65924;SDS011;66010;52.084;5.412;2023-04-07T02:40:38;11.45;;;3.83;;
65924;SDS011;66010;52.084;5.412;2023-04-07T02:43:05;11.57;;;3.70;;
65924;SDS011;66010;52.084;5.412;2023-04-07T02:45:31;9.25;;;3.50;;
65924;SDS011;66010;52.084;5.412;2023-04-07T02:47:58;9.93;;;3.40;;
65924;SDS011;66010;52.084;5.412;2023-04-07T02:50:24;12.90;;;3.80;;
65924;SDS011;66010;52.084;5.412;2023-04-07T02:52:51;9.15;;;3.40;;
65924;SDS011;66010;52.084;5.412;2023-04-07T02:55:17;9.20;;;3.30;;
65924;SDS011;66010;52.084;5.412;2023-04-07T02:57:44;10.70;;;3.30;;
65924;SDS011;66010;52.084;5.412;2023-04-07T03:00:21;12.55;;;3.47;;
65924;SDS011;66010;52.084;5.412;2023-04-07T03:03:02;12.05;;;3.75;;
65924;SDS011;66010;52.084;5.412;2023-04-07T03:05:33;10.85;;;3.40;;
65924;SDS011;66010;52.084;5.412;2023-04-07T03:08:01;9.45;;;3.08;;
65924;SDS011;66010;52.084;5.412;2023-04-07T03:10:27;10.93;;;3.50;;
65924;SDS011;66010;52.084;5.412;2023-04-07T03:12:54;10.32;;;3.50;;
65924;SDS011;66010;52.084;5.412;2023-04-07T03:15:20;8.77;;;3.75;;
65924;SDS011;66010;52.084;5.412;2023-04-07T03:17:49;9.68;;;3.20;;
65924;SDS011;66010;52.084;5.412;2023-04-07T03:20:16;12.55;;;3.47;;
65924;SDS011;66010;52.084;5.412;2023-04-07T03:22:43;9.90;;;3.33;;
65924;SDS011;66010;52.084;5.412;2023-04-07T03:25:19;9.88;;;3.40;;
65924;SDS011;66010;52.084;5.412;2023-04-07T03:27:47;8.80;;;3.30;;
65924;SDS011;66010;52.084;5.412;2023-04-07T03:30:14;8.02;;;3.03;;
65924;SDS011;66010;52.084;5.412;2023-04-07T03:32:42;11.77;;;3.47;;
65924;SDS011;66010;52.084;5.412;2023-04-07T03:35:09;8.90;;;2.88;;
65924;SDS011;66010;52.084;5.412;2023-04-07T03:37:35;10.02;;;3.05;;
65924;SDS011;66010;52.084;5.412;2023-04-07T03:40:05;10.27;;;3.10;;
65924;SDS011;66010;52.084;5.412;2023-04-07T03:46:27;10.18;;;3.17;;
65924;SDS011;66010;52.084;5.412;2023-04-07T03:48:54;11.63;;;2.90;;
65924;SDS011;66010;52.084;5.412;2023-04-07T03:51:21;11.45;;;3.22;;
65924;SDS011;66010;52.084;5.412;2023-04-07T03:53:52;12.98;;;3.33;;
65924;SDS011;66010;52.084;5.412;2023-04-07T03:56:39;9.85;;;2.78;;
65924;SDS011;66010;52.084;5.412;2023-04-07T03:59:06;10.85;;;3.13;;
65924;SDS011;66010;52.084;5.412;2023-04-07T04:01:38;11.45;;;3.15;;
65924;SDS011;66010;52.084;5.412;2023-04-07T04:04:10;8.75;;;2.63;;
65924;SDS011;66010;52.084;5.412;2023-04-07T04:06:36;10.57;;;3.03;;
65924;SDS011;66010;52.084;5.412;2023-04-07T04:09:21;10.98;;;3.08;;
65924;SDS011;66010;52.084;5.412;2023-04-07T04:11:47;8.93;;;2.85;;
65924;SDS011;66010;52.084;5.412;2023-04-07T04:14:15;10.73;;;3.10;;
65924;SDS011;66010;52.084;5.412;2023-04-07T04:16:47;10.18;;;2.90;;
65924;SDS011;66010;52.084;5.412;2023-04-07T04:19:27;11.50;;;2.70;;
65924;SDS011;66010;52.084;5.412;2023-04-07T04:21:56;11.48;;;3.35;;
65924;SDS011;66010;52.084;5.412;2023-04-07T04:24:24;11.20;;;2.92;;
65924;SDS011;66010;52.084;5.412;2023-04-07T04:26:53;13.65;;;3.08;;
65924;SDS011;66010;52.084;5.412;2023-04-07T04:29:22;9.45;;;2.67;;
65924;SDS011;66010;52.084;5.412;2023-04-07T04:31:48;14.65;;;2.92;;
65924;SDS011;66010;52.084;5.412;2023-04-07T04:34:15;12.52;;;3.03;;
65924;SDS011;66010;52.084;5.412;2023-04-07T04:36:44;11.93;;;3.25;;
65924;SDS011;66010;52.084;5.412;2023-04-07T04:39:11;13.13;;;2.75;;
65924;SDS011;66010;52.084;5.412;2023-04-07T04:41:37;10.52;;;2.78;;
65924;SDS011;66010;52.084;5.412;2023-04-07T04:46:31;13.00;;;3.00;;
65924;SDS011;66010;52.084;5.412;2023-04-07T04:48:58;10.40;;;3.00;;
65924;SDS011;66010;52.084;5.412;2023-04-07T04:51:25;13.88;;;3.58;;
65924;SDS011;66010;52.084;5.412;2023-04-07T04:53:57;12.10;;;3.30;;
65924;SDS011;66010;52.084;5.412;2023-04-07T04:56:25;12.20;;;3.22;;
65924;SDS011;66010;52.084;5.412;2023-04-07T04:58:52;9.82;;;3.22;;
65924;SDS011;66010;52.084;5.412;2023-04-07T05:01:31;11.40;;;3.50;;
65924;SDS011;66010;52.084;5.412;2023-04-07T05:04:08;11.10;;;3.15;;
65924;SDS011;66010;52.084;5.412;2023-04-07T05:06:40;13.65;;;3.38;;
65924;SDS011;66010;52.084;5.412;2023-04-07T05:09:10;12.02;;;2.90;;
65924;SDS011;66010;52.084;5.412;2023-04-07T05:11:41;10.70;;;2.88;;
65924;SDS011;66010;52.084;5.412;2023-04-07T05:14:08;8.90;;;2.80;;
65924;SDS011;66010;52.084;5.412;2023-04-07T05:16:37;11.50;;;3.20;;
65924;SDS011;66010;52.084;5.412;2023-04-07T05:19:04;9.52;;;3.03;;
65924;SDS011;66010;52.084;5.412;2023-04-07T05:21:31;9.38;;;2.90;;
65924;SDS011;66010;52.084;5.412;2023-04-07T05:24:01;13.70;;;2.95;;
65924;SDS011;66010;52.084;5.412;2023-04-07T05:26:29;12.38;;;2.63;;
65924;SDS011;66010;52.084;5.412;2023-04-07T05:28:56;9.60;;;2.67;;
65924;SDS011;66010;52.084;5.412;2023-04-07T05:31:24;9.77;;;2.50;;
65924;SDS011;66010;52.084;5.412;2023-04-07T05:33:54;10.00;;;2.72;;
65924;SDS011;66010;52.084;5.412;2023-04-07T05:36:24;8.15;;;2.50;;
65924;SDS011;66010;52.084;5.412;2023-04-07T05:38:54;8.38;;;2.45;;
65924;SDS011;66010;52.084;5.412;2023-04-07T05:41:21;10.73;;;2.38;;
65924;SDS011;66010;52.084;5.412;2023-04-07T05:43:47;12.38;;;2.67;;
65924;SDS011;66010;52.084;5.412;2023-04-07T05:46:15;8.30;;;2.60;;
65924;SDS011;66010;52.084;5.412;2023-04-07T05:48:54;7.43;;;2.30;;
65924;SDS011;66010;52.084;5.412;2023-04-07T05:51:23;8.98;;;2.50;;
65924;SDS011;66010;52.084;5.412;2023-04-07T05:53:51;9.98;;;2.65;;
65924;SDS011;66010;52.084;5.412;2023-04-07T05:56:21;8.95;;;2.42;;
65924;SDS011;66010;52.084;5.412;2023-04-07T05:58:47;9.25;;;2.50;;
65924;SDS011;66010;52.084;5.412;2023-04-07T06:03:41;9.25;;;2.60;;
65924;SDS011;66010;52.084;5.412;2023-04-07T06:06:13;7.63;;;2.30;;
65924;SDS011;66010;52.084;5.412;2023-04-07T06:08:40;7.03;;;2.20;;
65924;SDS011;66010;52.084;5.412;2023-04-07T06:11:07;8.52;;;2.30;;
65924;SDS011;66010;52.084;5.412;2023-04-07T06:13:33;9.27;;;2.30;;
65924;SDS011;66010;52.084;5.412;2023-04-07T06:16:00;9.45;;;2.40;;
65924;SDS011;66010;52.084;5.412;2023-04-07T06:18:26;8.95;;;2.60;;
65924;SDS011;66010;52.084;5.412;2023-04-07T06:20:52;8.23;;;2.45;;
65924;SDS011;66010;52.084;5.412;2023-04-07T06:23:19;8.43;;;2.40;;
65924;SDS011;66010;52.084;5.412;2023-04-07T06:25:46;7.65;;;2.58;;
65924;SDS011;66010;52.084;5.412;2023-04-07T06:28:16;6.85;;;2.33;;
65924;SDS011;66010;52.084;5.412;2023-04-07T06:30:43;10.27;;;2.92;;
65924;SDS011;66010;52.084;5.412;2023-04-07T06:33:11;9.80;;;2.63;;
65924;SDS011;66010;52.084;5.412;2023-04-07T06:35:39;7.65;;;2.22;;
65924;SDS011;66010;52.084;5.412;2023-04-07T06:40:33;9.13;;;2.70;;
65924;SDS011;66010;52.084;5.412;2023-04-07T06:42:59;7.35;;;2.28;;
65924;SDS011;66010;52.084;5.412;2023-04-07T06:45:38;8.52;;;2.55;;
65924;SDS011;66010;52.084;5.412;2023-04-07T06:48:05;10.30;;;2.65;;
65924;SDS011;66010;52.084;5.412;2023-04-07T06:50:31;9.90;;;2.50;;
65924;SDS011;66010;52.084;5.412;2023-04-07T06:52:58;6.03;;;2.22;;
65924;SDS011;66010;52.084;5.412;2023-04-07T06:55:24;9.52;;;2.53;;
65924;SDS011;66010;52.084;5.412;2023-04-07T06:57:53;10.95;;;2.70;;
65924;SDS011;66010;52.084;5.412;2023-04-07T07:00:20;11.65;;;2.53;;
65924;SDS011;66010;52.084;5.412;2023-04-07T07:02:48;9.95;;;2.78;;
65924;SDS011;66010;52.084;5.412;2023-04-07T07:05:15;15.00;;;2.92;;
65924;SDS011;66010;52.084;5.412;2023-04-07T07:07:41;11.25;;;2.67;;
65924;SDS011;66010;52.084;5.412;2023-04-07T07:10:08;10.80;;;3.22;;
65924;SDS011;66010;52.084;5.412;2023-04-07T07:12:36;12.20;;;3.42;;
65924;SDS011;66010;52.084;5.412;2023-04-07T07:15:02;9.07;;;2.75;;
65924;SDS011;66010;52.084;5.412;2023-04-07T07:17:29;12.25;;;3.15;;
65924;SDS011;66010;52.084;5.412;2023-04-07T07:19:55;8.30;;;3.40;;
65924;SDS011;66010;52.084;5.412;2023-04-07T07:22:22;9.73;;;3.03;;
65924;SDS011;66010;52.084;5.412;2023-04-07T07:24:48;9.38;;;3.00;;
65924;SDS011;66010;52.084;5.412;2023-04-07T07:29:42;9.98;;;2.83;;
65924;SDS011;66010;52.084;5.412;2023-04-07T07:32:09;10.35;;;2.70;;
65924;SDS011;66010;52.084;5.412;2023-04-07T07:34:35;9.32;;;2.63;;
65924;SDS011;66010;52.084;5.412;2023-04-07T07:37:02;11.13;;;2.65;;
65924;SDS011;66010;52.084;5.412;2023-04-07T07:39:28;9.20;;;2.53;;
65924;SDS011;66010;52.084;5.412;2023-04-07T07:41:55;9.25;;;2.83;;
65924;SDS011;66010;52.084;5.412;2023-04-07T07:44:21;10.77;;;2.67;;
65924;SDS011;66010;52.084;5.412;2023-04-07T07:46:49;7.03;;;2.33;;
65924;SDS011;66010;52.084;5.412;2023-04-07T07:49:16;12.20;;;2.83;;
65924;SDS011;66010;52.084;5.412;2023-04-07T07:51:42;12.85;;;2.50;;
65924;SDS011;66010;52.084;5.412;2023-04-07T07:54:11;8.23;;;2.20;;
65924;SDS011;66010;52.084;5.412;2023-04-07T07:56:37;9.43;;;2.33;;
65924;SDS011;66010;52.084;5.412;2023-04-07T07:59:04;11.98;;;2.35;;
65924;SDS011;66010;52.084;5.412;2023-04-07T08:01:33;8.07;;;2.30;;
65924;SDS011;66010;52.084;5.412;2023-04-07T08:04:00;9.95;;;2.35;;
65924;SDS011;66010;52.084;5.412;2023-04-07T08:06:26;12.07;;;2.38;;
65924;SDS011;66010;52.084;5.412;2023-04-07T08:08:54;9.85;;;2.30;;
65924;SDS011;66010;52.084;5.412;2023-04-07T08:11:21;15.43;;;2.63;;
65924;SDS011;66010;52.084;5.412;2023-04-07T08:16:15;8.98;;;2.60;;
65924;SDS011;66010;52.084;5.412;2023-04-07T08:18:41;10.70;;;2.10;;
65924;SDS011;66010;52.084;5.412;2023-04-07T08:21:08;11.20;;;2.40;;
65924;SDS011;66010;52.084;5.412;2023-04-07T08:23:34;7.65;;;2.10;;
65924;SDS011;66010;52.084;5.412;2023-04-07T08:26:01;7.38;;;2.08;;
65924;SDS011;66010;52.084;5.412;2023-04-07T08:28:27;8.02;;;2.00;;
65924;SDS011;66010;52.084;5.412;2023-04-07T08:30:54;8.52;;;2.00;;
65924;SDS011;66010;52.084;5.412;2023-04-07T08:33:20;8.68;;;1.95;;
65924;SDS011;66010;52.084;5.412;2023-04-07T08:35:47;12.50;;;2.08;;
65924;SDS011;66010;52.084;5.412;2023-04-07T08:38:13;6.85;;;1.70;;
65924;SDS011;66010;52.084;5.412;2023-04-07T08:40:40;7.43;;;1.90;;
65924;SDS011;66010;52.084;5.412;2023-04-07T08:43:07;6.45;;;1.65;;
65924;SDS011;66010;52.084;5.412;2023-04-07T08:45:38;5.22;;;1.60;;
65924;SDS011;66010;52.084;5.412;2023-04-07T08:48:12;6.82;;;1.50;;
65924;SDS011;66010;52.084;5.412;2023-04-07T08:50:42;6.85;;;1.80;;
65924;SDS011;66010;52.084;5.412;2023-04-07T08:53:09;9.77;;;1.85;;
65924;SDS011;66010;52.084;5.412;2023-04-07T08:55:39;11.98;;;2.50;;
65924;SDS011;66010;52.084;5.412;2023-04-07T08:58:08;9.65;;;2.30;;
65924;SDS011;66010;52.084;5.412;2023-04-07T09:00:41;12.30;;;2.75;;
65924;SDS011;66010;52.084;5.412;2023-04-07T09:03:08;13.65;;;2.63;;
65924;SDS011;66010;52.084;5.412;2023-04-07T09:05:37;9.10;;;2.08;;
65924;SDS011;66010;52.084;5.412;2023-04-07T09:08:04;11.27;;;2.33;;
65924;SDS011;66010;52.084;5.412;2023-04-07T09:10:30;10.20;;;2.17;;
65924;SDS011;66010;52.084;5.412;2023-04-07T09:12:57;9.25;;;2.10;;
65924;SDS011;66010;52.084;5.412;2023-04-07T09:15:24;10.20;;;2.35;;
65924;SDS011;66010;52.084;5.412;2023-04-07T09:17:51;8.77;;;2.17;;
65924;SDS011;66010;52.084;5.412;2023-04-07T09:20:18;10.23;;;2.10;;
65924;SDS011;66010;52.084;5.412;2023-04-07T09:22:44;7.97;;;1.90;;
65924;SDS011;66010;52.084;5.412;2023-04-07T09:25:18;7.00;;;1.90;;
65924;SDS011;66010;52.084;5.412;2023-04-07T09:28:06;9.68;;;2.15;;
65924;SDS011;66010;52.084;5.412;2023-04-07T09:30:32;8.40;;;2.10;;
65924;SDS011;66010;52.084;5.412;2023-04-07T09:32:59;7.03;;;1.88;;
65924;SDS011;66010;52.084;5.412;2023-04-07T09:35:26;6.63;;;1.85;;
65924;SDS011;66010;52.084;5.412;2023-04-07T09:38:27;8.75;;;2.17;;
65924;SDS011;66010;52.084;5.412;2023-04-07T09:40:47;9.13;;;1.90;;
65924;SDS011;66010;52.084;5.412;2023-04-07T09:43:17;9.48;;;2.17;;
65924;SDS011;66010;52.084;5.412;2023-04-07T09:45:44;7.95;;;2.05;;
65924;SDS011;66010;52.084;5.412;2023-04-07T09:48:19;8.05;;;2.20;;
65924;SDS011;66010;52.084;5.412;2023-04-07T09:50:46;7.90;;;2.03;;
65924;SDS011;66010;52.084;5.412;2023-04-07T09:53:17;9.85;;;2.10;;
65924;SDS011;66010;52.084;5.412;2023-04-07T09:55:48;7.28;;;2.10;;
65924;SDS011;66010;52.084;5.412;2023-04-07T09:58:15;8.48;;;1.65;;
65924;SDS011;66010;52.084;5.412;2023-04-07T10:00:42;8.35;;;2.00;;
65924;SDS011;66010;52.084;5.412;2023-04-07T10:03:08;7.80;;;1.83;;
65924;SDS011;66010;52.084;5.412;2023-04-07T10:05:35;7.93;;;2.10;;
65924;SDS011;66010;52.084;5.412;2023-04-07T10:08:02;6.22;;;1.70;;
65924;SDS011;66010;52.084;5.412;2023-04-07T10:10:29;5.65;;;1.70;;
65924;SDS011;66010;52.084;5.412;2023-04-07T10:12:56;6.22;;;1.88;;
65924;SDS011;66010;52.084;5.412;2023-04-07T10:15:24;6.82;;;1.80;;
65924;SDS011;66010;52.084;5.412;2023-04-07T10:17:51;6.45;;;1.50;;
65924;SDS011;66010;52.084;5.412;2023-04-07T10:20:18;7.40;;;1.80;;
65924;SDS011;66010;52.084;5.412;2023-04-07T10:22:48;7.38;;;1.73;;
65924;SDS011;66010;52.084;5.412;2023-04-07T10:25:17;5.43;;;1.52;;
65924;SDS011;66010;52.084;5.412;2023-04-07T10:27:47;5.57;;;1.60;;
65924;SDS011;66010;52.084;5.412;2023-04-07T10:30:18;6.82;;;1.65;;
65924;SDS011;66010;52.084;5.412;2023-04-07T10:32:49;7.28;;;1.60;;
65924;SDS011;66010;52.084;5.412;2023-04-07T10:35:17;5.00;;;1.63;;
65924;SDS011;66010;52.084;5.412;2023-04-07T10:38:26;7.00;;;1.83;;
65924;SDS011;66010;52.084;5.412;2023-04-07T10:40:34;6.53;;;1.58;;
65924;SDS011;66010;52.084;5.412;2023-04-07T10:43:01;5.95;;;1.55;;
65924;SDS011;66010;52.084;5.412;2023-04-07T10:48:21;5.28;;;1.55;;
65924;SDS011;66010;52.084;5.412;2023-04-07T10:53:30;5.95;;;1.45;;
65924;SDS011;66010;52.084;5.412;2023-04-07T10:55:56;6.47;;;1.60;;
65924;SDS011;66010;52.084;5.412;2023-04-07T11:03:27;5.65;;;1.50;;
65924;SDS011;66010;52.084;5.412;2023-04-07T11:06:04;4.95;;;1.50;;
65924;SDS011;66010;52.084;5.412;2023-04-07T11:08:34;5.78;;;1.50;;
65924;SDS011;66010;52.084;5.412;2023-04-07T11:11:01;4.00;;;1.40;;
65924;SDS011;66010;52.084;5.412;2023-04-07T11:13:28;3.80;;;1.40;;
65924;SDS011;66010;52.084;5.412;2023-04-07T11:16:05;5.43;;;1.50;;
65924;SDS011;66010;52.084;5.412;2023-04-07T11:18:32;3.95;;;1.35;;
65924;SDS011;66010;52.084;5.412;2023-04-07T11:20:58;5.57;;;1.38;;
65924;SDS011;66010;52.084;5.412;2023-04-07T11:23:25;4.82;;;1.63;;
65924;SDS011;66010;52.084;5.412;2023-04-07T11:25:58;4.15;;;1.50;;
65924;SDS011;66010;52.084;5.412;2023-04-07T11:28:26;4.28;;;1.40;;
65924;SDS011;66010;52.084;5.412;2023-04-07T11:30:53;4.55;;;1.38;;
65924;SDS011;66010;52.084;5.412;2023-04-07T11:33:24;5.95;;;1.50;;
65924;SDS011;66010;52.084;5.412;2023-04-07T11:35:55;11.77;;;2.03;;
65924;SDS011;66010;52.084;5.412;2023-04-07T11:38:23;6.00;;;1.63;;
65924;SDS011;66010;52.084;5.412;2023-04-07T11:40:50;11.75;;;1.95;;
65924;SDS011;66010;52.084;5.412;2023-04-07T11:43:20;6.20;;;1.70;;
65924;SDS011;66010;52.084;5.412;2023-04-07T11:48:30;6.05;;;1.75;;
65924;SDS011;66010;52.084;5.412;2023-04-07T11:50:57;6.90;;;1.50;;
65924;SDS011;66010;52.084;5.412;2023-04-07T11:53:24;5.30;;;1.60;;
65924;SDS011;66010;52.084;5.412;2023-04-07T11:55:59;5.15;;;1.60;;
65924;SDS011;66010;52.084;5.412;2023-04-07T11:58:26;6.28;;;1.60;;
65924;SDS011;66010;52.084;5.412;2023-04-07T12:00:53;6.15;;;1.50;;
65924;SDS011;66010;52.084;5.412;2023-04-07T12:03:21;5.88;;;1.60;;
65924;SDS011;66010;52.084;5.412;2023-04-07T12:05:47;5.78;;;1.60;;
65924;SDS011;66010;52.084;5.412;2023-04-07T12:08:14;4.65;;;1.60;;
65924;SDS011;66010;52.084;5.412;2023-04-07T12:10:42;5.47;;;1.63;;
65924;SDS011;66010;52.084;5.412;2023-04-07T12:13:08;4.75;;;1.50;;
65924;SDS011;66010;52.084;5.412;2023-04-07T12:15:35;6.72;;;1.80;;
65924;SDS011;66010;52.084;5.412;2023-04-07T12:18:04;5.38;;;1.55;;
65924;SDS011;66010;52.084;5.412;2023-04-07T12:20:31;4.72;;;1.58;;
65924;SDS011;66010;52.084;5.412;2023-04-07T12:22:58;3.95;;;1.45;;
65924;SDS011;66010;52.084;5.412;2023-04-07T12:25:25;5.70;;;1.50;;
65924;SDS011;66010;52.084;5.412;2023-04-07T12:27:52;5.50;;;1.50;;
65924;SDS011;66010;52.084;5.412;2023-04-07T12:30:19;4.45;;;1.40;;
65924;SDS011;66010;52.084;5.412;2023-04-07T12:35:12;4.93;;;1.33;;
65924;SDS011;66010;52.084;5.412;2023-04-07T12:37:39;4.03;;;1.38;;
65924;SDS011;66010;52.084;5.412;2023-04-07T12:40:06;4.55;;;1.50;;
65924;SDS011;66010;52.084;5.412;2023-04-07T12:42:32;5.75;;;1.58;;
65924;SDS011;66010;52.084;5.412;2023-04-07T12:44:59;6.28;;;1.60;;
65924;SDS011;66010;52.084;5.412;2023-04-07T12:47:25;3.70;;;1.40;;
65924;SDS011;66010;52.084;5.412;2023-04-07T12:49:52;4.82;;;1.40;;
65924;SDS011;66010;52.084;5.412;2023-04-07T12:52:18;5.90;;;1.70;;
65924;SDS011;66010;52.084;5.412;2023-04-07T12:54:45;4.45;;;1.50;;
65924;SDS011;66010;52.084;5.412;2023-04-07T12:57:11;6.03;;;1.58;;
65924;SDS011;66010;52.084;5.412;2023-04-07T12:59:38;5.07;;;1.60;;
65924;SDS011;66010;52.084;5.412;2023-04-07T13:02:05;3.90;;;1.45;;
65924;SDS011;66010;52.084;5.412;2023-04-07T13:07:00;3.45;;;1.48;;
65924;SDS011;66010;52.084;5.412;2023-04-07T13:09:28;4.75;;;1.60;;
65924;SDS011;66010;52.084;5.412;2023-04-07T13:11:54;3.30;;;1.40;;
65924;SDS011;66010;52.084;5.412;2023-04-07T13:14:22;4.28;;;1.70;;
65924;SDS011;66010;52.084;5.412;2023-04-07T13:16:49;5.85;;;1.50;;
65924;SDS011;66010;52.084;5.412;2023-04-07T13:19:16;4.90;;;1.60;;
65924;SDS011;66010;52.084;5.412;2023-04-07T13:21:42;9.43;;;3.92;;
65924;SDS011;66010;52.084;5.412;2023-04-07T13:24:13;13.90;;;6.53;;
65924;SDS011;66010;52.084;5.412;2023-04-07T13:26:39;15.45;;;7.72;;
65924;SDS011;66010;52.084;5.412;2023-04-07T13:29:05;15.07;;;7.43;;
65924;SDS011;66010;52.084;5.412;2023-04-07T13:31:32;14.68;;;6.93;;
65924;SDS011;66010;52.084;5.412;2023-04-07T13:33:58;12.68;;;6.15;;
65924;SDS011;66010;52.084;5.412;2023-04-07T13:36:25;12.95;;;5.65;;
65924;SDS011;66010;52.084;5.412;2023-04-07T13:38:53;12.07;;;5.85;;
65924;SDS011;66010;52.084;5.412;2023-04-07T13:41:20;11.93;;;5.05;;
65924;SDS011;66010;52.084;5.412;2023-04-07T13:43:47;10.25;;;4.97;;
65924;SDS011;66010;52.084;5.412;2023-04-07T13:48:53;11.90;;;5.15;;
65924;SDS011;66010;52.084;5.412;2023-04-07T13:51:20;11.77;;;5.15;;
65924;SDS011;66010;52.084;5.412;2023-04-07T13:53:47;12.18;;;5.32;;
65924;SDS011;66010;52.084;5.412;2023-04-07T13:56:14;11.63;;;4.57;;
65924;SDS011;66010;52.084;5.412;2023-04-07T13:58:40;9.80;;;4.05;;
65924;SDS011;66010;52.084;5.412;2023-04-07T14:01:07;9.25;;;3.90;;
65924;SDS011;66010;52.084;5.412;2023-04-07T14:03:33;10.05;;;3.80;;
65924;SDS011;66010;52.084;5.412;2023-04-07T14:06:01;9.05;;;3.40;;
65924;SDS011;66010;52.084;5.412;2023-04-07T14:08:27;8.35;;;3.42;;
65924;SDS011;66010;52.084;5.412;2023-04-07T14:10:54;8.38;;;3.42;;
65924;SDS011;66010;52.084;5.412;2023-04-07T14:13:21;9.25;;;3.72;;
65924;SDS011;66010;52.084;5.412;2023-04-07T14:15:48;8.55;;;3.10;;
65924;SDS011;66010;52.084;5.412;2023-04-07T14:18:15;7.35;;;3.10;;
65924;SDS011;66010;52.084;5.412;2023-04-07T14:20:42;8.00;;;3.15;;
65924;SDS011;66010;52.084;5.412;2023-04-07T14:23:09;9.07;;;3.28;;
65924;SDS011;66010;52.084;5.412;2023-04-07T14:25:36;8.52;;;3.22;;
65924;SDS011;66010;52.084;5.412;2023-04-07T14:28:02;8.23;;;3.10;;
65924;SDS011;66010;52.084;5.412;2023-04-07T14:30:28;8.70;;;3.17;;
65924;SDS011;66010;52.084;5.412;2023-04-07T14:32:56;11.15;;;3.03;;
65924;SDS011;66010;52.084;5.412;2023-04-07T14:35:22;7.72;;;3.00;;
65924;SDS011;66010;52.084;5.412;2023-04-07T14:37:49;8.95;;;3.33;;
65924;SDS011;66010;52.084;5.412;2023-04-07T14:40:17;9.27;;;3.05;;
65924;SDS011;66010;52.084;5.412;2023-04-07T14:42:46;9.07;;;3.42;;
65924;SDS011;66010;52.084;5.412;2023-04-07T14:45:14;8.25;;;3.63;;
65924;SDS011;66010;52.084;5.412;2023-04-07T14:47:40;8.90;;;3.33;;
65924;SDS011;66010;52.084;5.412;2023-04-07T14:50:07;7.40;;;2.97;;
65924;SDS011;66010;52.084;5.412;2023-04-07T14:52:33;8.38;;;3.10;;
65924;SDS011;66010;52.084;5.412;2023-04-07T14:55:00;8.90;;;3.00;;
65924;SDS011;66010;52.084;5.412;2023-04-07T14:57:26;8.20;;;3.10;;
65924;SDS011;66010;52.084;5.412;2023-04-07T14:59:53;9.00;;;3.40;;
65924;SDS011;66010;52.084;5.412;2023-04-07T15:02:19;8.30;;;2.88;;
65924;SDS011;66010;52.084;5.412;2023-04-07T15:04:47;7.90;;;2.80;;
65924;SDS011;66010;52.084;5.412;2023-04-07T15:07:14;7.43;;;3.05;;
65924;SDS011;66010;52.084;5.412;2023-04-07T15:09:40;6.53;;;2.55;;
65924;SDS011;66010;52.084;5.412;2023-04-07T15:12:07;7.28;;;2.95;;
65924;SDS011;66010;52.084;5.412;2023-04-07T15:14:33;6.90;;;2.58;;
65924;SDS011;66010;52.084;5.412;2023-04-07T15:17:00;7.32;;;2.72;;
65924;SDS011;66010;52.084;5.412;2023-04-07T15:19:26;7.25;;;2.60;;
65924;SDS011;66010;52.084;5.412;2023-04-07T15:21:52;8.07;;;2.65;;
65924;SDS011;66010;52.084;5.412;2023-04-07T15:24:19;7.30;;;2.60;;
65924;SDS011;66010;52.084;5.412;2023-04-07T15:26:47;6.70;;;2.78;;
65924;SDS011;66010;52.084;5.412;2023-04-07T15:29:14;7.07;;;3.03;;
65924;SDS011;66010;52.084;5.412;2023-04-07T15:31:40;6.10;;;2.80;;
65924;SDS011;66010;52.084;5.412;2023-04-07T15:34:07;7.53;;;2.70;;
65924;SDS011;66010;52.084;5.412;2023-04-07T15:36:33;6.75;;;2.70;;